sensor_id;sensor_type;location;lat;lon;timestamp;P1;durP1;ratioP1;P2;durP2;ratioP2
46551;SDS011;32278;51.810;4.712;2023-04-24T00:02:13;1.90;;;1.60;;
46551;SDS011;32278;51.810;4.712;2023-04-24T00:04:40;2.15;;;1.30;;
46551;SDS011;32278;51.810;4.712;2023-04-24T00:07:09;1.33;;;1.23;;
46551;SDS011;32278;51.810;4.712;2023-04-24T00:09:35;2.88;;;1.20;;
46551;SDS011;32278;51.810;4.712;2023-04-24T00:12:01;3.60;;;1.38;;
46551;SDS011;32278;51.810;4.712;2023-04-24T00:14:29;4.03;;;1.40;;
46551;SDS011;32278;51.810;4.712;2023-04-24T00:16:55;3.20;;;1.75;;
46551;SDS011;32278;51.810;4.712;2023-04-24T00:19:21;2.70;;;2.10;;
46551;SDS011;32278;51.810;4.712;2023-04-24T00:21:47;5.55;;;2.00;;
46551;SDS011;32278;51.810;4.712;2023-04-24T00:24:17;7.70;;;3.83;;
46551;SDS011;32278;51.810;4.712;2023-04-24T00:26:43;5.10;;;3.25;;
46551;SDS011;32278;51.810;4.712;2023-04-24T00:29:09;6.45;;;4.32;;
46551;SDS011;32278;51.810;4.712;2023-04-24T00:31:35;7.13;;;5.18;;
46551;SDS011;32278;51.810;4.712;2023-04-24T00:34:01;10.73;;;4.88;;
46551;SDS011;32278;51.810;4.712;2023-04-24T00:36:27;13.52;;;5.85;;
46551;SDS011;32278;51.810;4.712;2023-04-24T00:38:54;12.13;;;5.82;;
46551;SDS011;32278;51.810;4.712;2023-04-24T00:41:20;9.10;;;5.45;;
46551;SDS011;32278;51.810;4.712;2023-04-24T00:43:47;8.88;;;5.65;;
46551;SDS011;32278;51.810;4.712;2023-04-24T00:46:13;13.13;;;6.00;;
46551;SDS011;32278;51.810;4.712;2023-04-24T00:48:39;10.60;;;5.93;;
46551;SDS011;32278;51.810;4.712;2023-04-24T00:51:05;11.38;;;7.03;;
46551;SDS011;32278;51.810;4.712;2023-04-24T00:53:31;10.02;;;6.38;;
46551;SDS011;32278;51.810;4.712;2023-04-24T00:55:58;13.40;;;5.25;;
46551;SDS011;32278;51.810;4.712;2023-04-24T00:58:24;9.30;;;5.45;;
46551;SDS011;32278;51.810;4.712;2023-04-24T01:00:50;11.73;;;6.65;;
46551;SDS011;32278;51.810;4.712;2023-04-24T01:03:18;13.43;;;6.80;;
46551;SDS011;32278;51.810;4.712;2023-04-24T01:05:45;13.05;;;7.10;;
46551;SDS011;32278;51.810;4.712;2023-04-24T01:08:11;14.95;;;8.07;;
46551;SDS011;32278;51.810;4.712;2023-04-24T01:10:37;15.40;;;8.52;;
46551;SDS011;32278;51.810;4.712;2023-04-24T01:13:04;11.13;;;5.75;;
46551;SDS011;32278;51.810;4.712;2023-04-24T01:15:30;8.38;;;5.15;;
46551;SDS011;32278;51.810;4.712;2023-04-24T01:17:56;9.70;;;5.50;;
46551;SDS011;32278;51.810;4.712;2023-04-24T01:20:22;10.45;;;5.05;;
46551;SDS011;32278;51.810;4.712;2023-04-24T01:22:49;9.35;;;5.20;;
46551;SDS011;32278;51.810;4.712;2023-04-24T01:25:15;9.15;;;4.80;;
46551;SDS011;32278;51.810;4.712;2023-04-24T01:27:41;10.27;;;6.20;;
46551;SDS011;32278;51.810;4.712;2023-04-24T01:30:07;13.07;;;6.60;;
46551;SDS011;32278;51.810;4.712;2023-04-24T01:32:34;13.05;;;6.63;;
46551;SDS011;32278;51.810;4.712;2023-04-24T01:35:01;12.90;;;7.03;;
46551;SDS011;32278;51.810;4.712;2023-04-24T01:37:27;15.27;;;7.85;;
46551;SDS011;32278;51.810;4.712;2023-04-24T01:39:53;12.57;;;8.10;;
46551;SDS011;32278;51.810;4.712;2023-04-24T01:42:19;16.73;;;7.90;;
46551;SDS011;32278;51.810;4.712;2023-04-24T01:44:45;13.30;;;7.60;;
46551;SDS011;32278;51.810;4.712;2023-04-24T01:47:11;14.43;;;8.18;;
46551;SDS011;32278;51.810;4.712;2023-04-24T01:49:38;18.35;;;9.57;;
46551;SDS011;32278;51.810;4.712;2023-04-24T01:52:04;15.63;;;9.68;;
46551;SDS011;32278;51.810;4.712;2023-04-24T01:54:30;16.63;;;9.10;;
46551;SDS011;32278;51.810;4.712;2023-04-24T01:56:56;19.67;;;9.10;;
46551;SDS011;32278;51.810;4.712;2023-04-24T01:59:22;19.23;;;10.43;;
46551;SDS011;32278;51.810;4.712;2023-04-24T02:01:49;21.42;;;11.02;;
46551;SDS011;32278;51.810;4.712;2023-04-24T02:04:15;19.13;;;10.40;;
46551;SDS011;32278;51.810;4.712;2023-04-24T02:06:40;20.65;;;11.18;;
46551;SDS011;32278;51.810;4.712;2023-04-24T02:09:06;21.02;;;11.35;;
46551;SDS011;32278;51.810;4.712;2023-04-24T02:11:33;26.67;;;11.25;;
46551;SDS011;32278;51.810;4.712;2023-04-24T02:13:59;19.40;;;10.45;;
46551;SDS011;32278;51.810;4.712;2023-04-24T02:16:25;18.98;;;10.95;;
46551;SDS011;32278;51.810;4.712;2023-04-24T02:18:51;25.27;;;11.65;;
46551;SDS011;32278;51.810;4.712;2023-04-24T02:21:17;24.00;;;12.25;;
46551;SDS011;32278;51.810;4.712;2023-04-24T02:23:43;24.70;;;11.10;;
46551;SDS011;32278;51.810;4.712;2023-04-24T02:26:09;25.20;;;12.45;;
46551;SDS011;32278;51.810;4.712;2023-04-24T02:28:35;18.58;;;10.40;;
46551;SDS011;32278;51.810;4.712;2023-04-24T02:31:01;25.90;;;11.38;;
46551;SDS011;32278;51.810;4.712;2023-04-24T02:33:27;20.15;;;11.65;;
46551;SDS011;32278;51.810;4.712;2023-04-24T02:35:53;32.25;;;11.90;;
46551;SDS011;32278;51.810;4.712;2023-04-24T02:38:19;20.85;;;11.07;;
46551;SDS011;32278;51.810;4.712;2023-04-24T02:40:45;28.42;;;12.65;;
46551;SDS011;32278;51.810;4.712;2023-04-24T02:43:11;27.40;;;13.38;;
46551;SDS011;32278;51.810;4.712;2023-04-24T02:45:37;22.92;;;11.45;;
46551;SDS011;32278;51.810;4.712;2023-04-24T02:48:03;21.25;;;10.50;;
46551;SDS011;32278;51.810;4.712;2023-04-24T02:50:29;23.60;;;10.52;;
46551;SDS011;32278;51.810;4.712;2023-04-24T02:52:56;26.27;;;10.18;;
46551;SDS011;32278;51.810;4.712;2023-04-24T02:55:22;18.65;;;7.57;;
46551;SDS011;32278;51.810;4.712;2023-04-24T02:57:48;21.35;;;7.25;;
46551;SDS011;32278;51.810;4.712;2023-04-24T03:00:14;17.02;;;7.40;;
46551;SDS011;32278;51.810;4.712;2023-04-24T03:02:40;13.38;;;7.35;;
46551;SDS011;32278;51.810;4.712;2023-04-24T03:05:07;12.70;;;6.78;;
46551;SDS011;32278;51.810;4.712;2023-04-24T03:07:33;12.27;;;7.15;;
46551;SDS011;32278;51.810;4.712;2023-04-24T03:10:00;17.27;;;7.40;;
46551;SDS011;32278;51.810;4.712;2023-04-24T03:12:26;15.45;;;7.18;;
46551;SDS011;32278;51.810;4.712;2023-04-24T03:14:53;15.32;;;6.70;;
46551;SDS011;32278;51.810;4.712;2023-04-24T03:17:19;14.18;;;7.32;;
46551;SDS011;32278;51.810;4.712;2023-04-24T03:19:45;14.60;;;7.00;;
46551;SDS011;32278;51.810;4.712;2023-04-24T03:22:11;10.90;;;7.47;;
46551;SDS011;32278;51.810;4.712;2023-04-24T03:24:37;13.32;;;6.95;;
46551;SDS011;32278;51.810;4.712;2023-04-24T03:27:06;8.25;;;5.60;;
46551;SDS011;32278;51.810;4.712;2023-04-24T03:29:32;9.30;;;5.38;;
46551;SDS011;32278;51.810;4.712;2023-04-24T03:31:58;5.32;;;3.42;;
46551;SDS011;32278;51.810;4.712;2023-04-24T03:34:24;6.88;;;3.70;;
46551;SDS011;32278;51.810;4.712;2023-04-24T03:36:50;6.13;;;3.45;;
46551;SDS011;32278;51.810;4.712;2023-04-24T03:39:17;9.27;;;3.80;;
46551;SDS011;32278;51.810;4.712;2023-04-24T03:41:43;5.72;;;3.38;;
46551;SDS011;32278;51.810;4.712;2023-04-24T03:44:09;8.95;;;3.22;;
46551;SDS011;32278;51.810;4.712;2023-04-24T03:46:35;8.20;;;4.20;;
46551;SDS011;32278;51.810;4.712;2023-04-24T03:49:01;8.10;;;4.25;;
46551;SDS011;32278;51.810;4.712;2023-04-24T03:51:27;6.38;;;3.78;;
46551;SDS011;32278;51.810;4.712;2023-04-24T03:53:55;6.95;;;3.05;;
46551;SDS011;32278;51.810;4.712;2023-04-24T03:56:21;3.47;;;2.53;;
46551;SDS011;32278;51.810;4.712;2023-04-24T03:58:47;3.08;;;2.20;;
46551;SDS011;32278;51.810;4.712;2023-04-24T04:01:13;5.63;;;2.15;;
46551;SDS011;32278;51.810;4.712;2023-04-24T04:03:40;5.15;;;2.67;;
46551;SDS011;32278;51.810;4.712;2023-04-24T04:06:06;4.72;;;2.67;;
46551;SDS011;32278;51.810;4.712;2023-04-24T04:08:33;6.20;;;2.75;;
46551;SDS011;32278;51.810;4.712;2023-04-24T04:10:59;4.18;;;2.95;;
46551;SDS011;32278;51.810;4.712;2023-04-24T04:13:25;9.43;;;2.92;;
46551;SDS011;32278;51.810;4.712;2023-04-24T04:15:51;7.38;;;3.70;;
46551;SDS011;32278;51.810;4.712;2023-04-24T04:18:18;9.38;;;3.38;;
46551;SDS011;32278;51.810;4.712;2023-04-24T04:20:44;8.95;;;4.18;;
46551;SDS011;32278;51.810;4.712;2023-04-24T04:23:10;6.22;;;3.45;;
46551;SDS011;32278;51.810;4.712;2023-04-24T04:25:36;7.35;;;3.33;;
46551;SDS011;32278;51.810;4.712;2023-04-24T04:28:02;5.45;;;2.50;;
46551;SDS011;32278;51.810;4.712;2023-04-24T04:30:28;5.28;;;3.45;;
46551;SDS011;32278;51.810;4.712;2023-04-24T04:32:57;5.32;;;4.38;;
46551;SDS011;32278;51.810;4.712;2023-04-24T04:35:24;7.43;;;4.22;;
46551;SDS011;32278;51.810;4.712;2023-04-24T04:37:50;6.13;;;3.45;;
46551;SDS011;32278;51.810;4.712;2023-04-24T04:40:16;6.53;;;3.95;;
46551;SDS011;32278;51.810;4.712;2023-04-24T04:42:42;4.15;;;3.30;;
46551;SDS011;32278;51.810;4.712;2023-04-24T04:45:11;5.60;;;4.05;;
46551;SDS011;32278;51.810;4.712;2023-04-24T04:47:37;8.55;;;3.47;;
46551;SDS011;32278;51.810;4.712;2023-04-24T04:50:04;8.65;;;4.53;;
46551;SDS011;32278;51.810;4.712;2023-04-24T04:52:31;6.82;;;4.03;;
46551;SDS011;32278;51.810;4.712;2023-04-24T04:54:57;6.65;;;4.32;;
46551;SDS011;32278;51.810;4.712;2023-04-24T04:57:22;7.35;;;5.13;;
46551;SDS011;32278;51.810;4.712;2023-04-24T04:59:48;7.90;;;4.15;;
46551;SDS011;32278;51.810;4.712;2023-04-24T05:02:14;7.72;;;4.28;;
46551;SDS011;32278;51.810;4.712;2023-04-24T05:04:40;2.55;;;1.70;;
46551;SDS011;32278;51.810;4.712;2023-04-24T05:07:06;5.63;;;2.10;;
46551;SDS011;32278;51.810;4.712;2023-04-24T05:09:32;5.13;;;2.22;;
46551;SDS011;32278;51.810;4.712;2023-04-24T05:11:58;4.57;;;2.20;;
46551;SDS011;32278;51.810;4.712;2023-04-24T05:14:25;6.43;;;2.15;;
46551;SDS011;32278;51.810;4.712;2023-04-24T05:16:51;1.90;;;1.63;;
46551;SDS011;32278;51.810;4.712;2023-04-24T05:19:17;3.47;;;2.10;;
46551;SDS011;32278;51.810;4.712;2023-04-24T05:21:43;4.30;;;2.13;;
46551;SDS011;32278;51.810;4.712;2023-04-24T05:24:10;5.03;;;3.25;;
46551;SDS011;32278;51.810;4.712;2023-04-24T05:26:36;9.07;;;4.63;;
46551;SDS011;32278;51.810;4.712;2023-04-24T05:29:02;10.60;;;5.00;;
46551;SDS011;32278;51.810;4.712;2023-04-24T05:31:29;11.40;;;5.80;;
46551;SDS011;32278;51.810;4.712;2023-04-24T05:33:57;12.05;;;5.68;;
46551;SDS011;32278;51.810;4.712;2023-04-24T05:36:23;10.13;;;5.95;;
46551;SDS011;32278;51.810;4.712;2023-04-24T05:38:49;15.23;;;7.20;;
46551;SDS011;32278;51.810;4.712;2023-04-24T05:41:15;15.85;;;7.60;;
46551;SDS011;32278;51.810;4.712;2023-04-24T05:43:41;19.42;;;6.90;;
46551;SDS011;32278;51.810;4.712;2023-04-24T05:46:07;18.27;;;7.53;;
46551;SDS011;32278;51.810;4.712;2023-04-24T05:48:33;13.88;;;7.53;;
46551;SDS011;32278;51.810;4.712;2023-04-24T05:50:59;16.25;;;7.75;;
46551;SDS011;32278;51.810;4.712;2023-04-24T05:53:25;15.93;;;8.88;;
46551;SDS011;32278;51.810;4.712;2023-04-24T05:55:51;17.27;;;9.43;;
46551;SDS011;32278;51.810;4.712;2023-04-24T05:58:17;20.88;;;10.18;;
46551;SDS011;32278;51.810;4.712;2023-04-24T06:00:44;24.90;;;9.82;;
46551;SDS011;32278;51.810;4.712;2023-04-24T06:03:11;21.10;;;11.00;;
46551;SDS011;32278;51.810;4.712;2023-04-24T06:05:37;27.20;;;10.70;;
46551;SDS011;32278;51.810;4.712;2023-04-24T06:08:03;22.60;;;13.23;;
46551;SDS011;32278;51.810;4.712;2023-04-24T06:10:29;29.08;;;12.15;;
46551;SDS011;32278;51.810;4.712;2023-04-24T06:12:55;20.75;;;10.35;;
46551;SDS011;32278;51.810;4.712;2023-04-24T06:15:25;25.88;;;11.85;;
46551;SDS011;32278;51.810;4.712;2023-04-24T06:17:51;25.75;;;10.93;;
46551;SDS011;32278;51.810;4.712;2023-04-24T06:20:17;26.90;;;11.20;;
46551;SDS011;32278;51.810;4.712;2023-04-24T06:22:43;23.20;;;11.15;;
46551;SDS011;32278;51.810;4.712;2023-04-24T06:25:09;25.15;;;10.60;;
46551;SDS011;32278;51.810;4.712;2023-04-24T06:27:35;28.13;;;11.73;;
46551;SDS011;32278;51.810;4.712;2023-04-24T06:30:01;18.10;;;8.57;;
46551;SDS011;32278;51.810;4.712;2023-04-24T06:32:27;21.58;;;10.10;;
46551;SDS011;32278;51.810;4.712;2023-04-24T06:34:53;29.33;;;9.57;;
46551;SDS011;32278;51.810;4.712;2023-04-24T06:37:22;21.48;;;9.93;;
46551;SDS011;32278;51.810;4.712;2023-04-24T06:39:48;22.50;;;7.97;;
46551;SDS011;32278;51.810;4.712;2023-04-24T06:42:14;16.25;;;6.80;;
46551;SDS011;32278;51.810;4.712;2023-04-24T06:44:40;27.77;;;7.72;;
46551;SDS011;32278;51.810;4.712;2023-04-24T06:47:07;24.08;;;6.40;;
46551;SDS011;32278;51.810;4.712;2023-04-24T06:49:34;24.05;;;7.07;;
46551;SDS011;32278;51.810;4.712;2023-04-24T06:52:00;15.73;;;5.50;;
46551;SDS011;32278;51.810;4.712;2023-04-24T06:54:26;17.45;;;5.82;;
46551;SDS011;32278;51.810;4.712;2023-04-24T06:56:52;23.15;;;6.97;;
46551;SDS011;32278;51.810;4.712;2023-04-24T06:59:18;16.52;;;5.82;;
46551;SDS011;32278;51.810;4.712;2023-04-24T07:01:44;22.13;;;6.80;;
46551;SDS011;32278;51.810;4.712;2023-04-24T07:04:10;29.48;;;6.05;;
46551;SDS011;32278;51.810;4.712;2023-04-24T07:06:37;22.70;;;6.20;;
46551;SDS011;32278;51.810;4.712;2023-04-24T07:09:04;31.13;;;6.57;;
46551;SDS011;32278;51.810;4.712;2023-04-24T07:11:30;26.85;;;7.72;;
46551;SDS011;32278;51.810;4.712;2023-04-24T07:13:57;21.42;;;6.75;;
46551;SDS011;32278;51.810;4.712;2023-04-24T07:16:23;22.10;;;6.57;;
46551;SDS011;32278;51.810;4.712;2023-04-24T07:18:50;20.85;;;6.38;;
46551;SDS011;32278;51.810;4.712;2023-04-24T07:21:16;17.40;;;5.43;;
46551;SDS011;32278;51.810;4.712;2023-04-24T07:23:42;28.83;;;8.63;;
46551;SDS011;32278;51.810;4.712;2023-04-24T07:26:08;18.83;;;4.90;;
46551;SDS011;32278;51.810;4.712;2023-04-24T07:28:34;28.80;;;5.20;;
46551;SDS011;32278;51.810;4.712;2023-04-24T07:31:01;17.48;;;6.05;;
46551;SDS011;32278;51.810;4.712;2023-04-24T07:33:27;23.33;;;6.68;;
46551;SDS011;32278;51.810;4.712;2023-04-24T07:35:53;27.00;;;5.00;;
46551;SDS011;32278;51.810;4.712;2023-04-24T07:38:19;22.17;;;4.93;;
46551;SDS011;32278;51.810;4.712;2023-04-24T07:40:48;21.00;;;5.15;;
46551;SDS011;32278;51.810;4.712;2023-04-24T07:43:14;20.92;;;4.43;;
46551;SDS011;32278;51.810;4.712;2023-04-24T07:45:40;20.17;;;4.70;;
46551;SDS011;32278;51.810;4.712;2023-04-24T07:48:06;30.30;;;4.95;;
46551;SDS011;32278;51.810;4.712;2023-04-24T07:50:33;22.80;;;4.70;;
46551;SDS011;32278;51.810;4.712;2023-04-24T07:53:01;29.70;;;4.38;;
46551;SDS011;32278;51.810;4.712;2023-04-24T07:55:27;17.30;;;3.45;;
46551;SDS011;32278;51.810;4.712;2023-04-24T07:57:53;17.65;;;3.88;;
46551;SDS011;32278;51.810;4.712;2023-04-24T08:00:19;14.65;;;2.90;;
46551;SDS011;32278;51.810;4.712;2023-04-24T08:02:45;16.15;;;4.72;;
46551;SDS011;32278;51.810;4.712;2023-04-24T08:05:11;23.50;;;3.83;;
46551;SDS011;32278;51.810;4.712;2023-04-24T08:07:38;13.70;;;3.35;;
46551;SDS011;32278;51.810;4.712;2023-04-24T08:10:04;19.33;;;4.25;;
46551;SDS011;32278;51.810;4.712;2023-04-24T08:12:30;22.90;;;4.05;;
46551;SDS011;32278;51.810;4.712;2023-04-24T08:14:56;8.75;;;3.15;;
46551;SDS011;32278;51.810;4.712;2023-04-24T08:17:23;12.85;;;3.25;;
46551;SDS011;32278;51.810;4.712;2023-04-24T08:19:50;10.30;;;3.75;;
46551;SDS011;32278;51.810;4.712;2023-04-24T08:22:20;9.82;;;3.47;;
46551;SDS011;32278;51.810;4.712;2023-04-24T08:24:46;18.30;;;2.97;;
46551;SDS011;32278;51.810;4.712;2023-04-24T08:27:12;15.43;;;3.17;;
46551;SDS011;32278;51.810;4.712;2023-04-24T08:29:38;12.45;;;2.95;;
46551;SDS011;32278;51.810;4.712;2023-04-24T08:32:04;21.20;;;3.55;;
46551;SDS011;32278;51.810;4.712;2023-04-24T08:34:31;20.42;;;3.00;;
46551;SDS011;32278;51.810;4.712;2023-04-24T08:36:57;17.30;;;5.53;;
46551;SDS011;32278;51.810;4.712;2023-04-24T08:39:23;14.82;;;2.72;;
46551;SDS011;32278;51.810;4.712;2023-04-24T08:41:49;11.77;;;3.05;;
46551;SDS011;32278;51.810;4.712;2023-04-24T08:44:16;15.77;;;3.28;;
46551;SDS011;32278;51.810;4.712;2023-04-24T08:46:42;8.90;;;2.60;;
46551;SDS011;32278;51.810;4.712;2023-04-24T08:49:13;9.02;;;2.55;;
46551;SDS011;32278;51.810;4.712;2023-04-24T08:51:41;11.18;;;2.45;;
46551;SDS011;32278;51.810;4.712;2023-04-24T08:54:07;9.15;;;2.10;;
46551;SDS011;32278;51.810;4.712;2023-04-24T08:56:34;7.43;;;2.42;;
46551;SDS011;32278;51.810;4.712;2023-04-24T08:59:06;11.23;;;2.40;;
46551;SDS011;32278;51.810;4.712;2023-04-24T09:01:32;9.77;;;2.65;;
46551;SDS011;32278;51.810;4.712;2023-04-24T09:04:00;7.82;;;1.77;;
46551;SDS011;32278;51.810;4.712;2023-04-24T09:06:27;11.13;;;2.00;;
46551;SDS011;32278;51.810;4.712;2023-04-24T09:08:53;8.77;;;1.95;;
46551;SDS011;32278;51.810;4.712;2023-04-24T09:11:22;10.25;;;2.28;;
46551;SDS011;32278;51.810;4.712;2023-04-24T09:13:49;6.28;;;1.95;;
46551;SDS011;32278;51.810;4.712;2023-04-24T09:16:16;7.55;;;4.05;;
46551;SDS011;32278;51.810;4.712;2023-04-24T09:18:42;7.13;;;1.70;;
46551;SDS011;32278;51.810;4.712;2023-04-24T09:21:09;5.13;;;2.08;;
46551;SDS011;32278;51.810;4.712;2023-04-24T09:23:35;6.90;;;2.47;;
46551;SDS011;32278;51.810;4.712;2023-04-24T09:26:01;7.65;;;2.30;;
46551;SDS011;32278;51.810;4.712;2023-04-24T09:28:34;7.43;;;2.20;;
46551;SDS011;32278;51.810;4.712;2023-04-24T09:31:04;6.55;;;1.38;;
46551;SDS011;32278;51.810;4.712;2023-04-24T09:33:30;4.72;;;1.02;;
46551;SDS011;32278;51.810;4.712;2023-04-24T09:35:57;8.25;;;1.30;;
46551;SDS011;32278;51.810;4.712;2023-04-24T09:38:30;8.68;;;1.02;;
46551;SDS011;32278;51.810;4.712;2023-04-24T09:40:58;1.83;;;0.70;;
46551;SDS011;32278;51.810;4.712;2023-04-24T09:43:26;4.75;;;0.90;;
46551;SDS011;32278;51.810;4.712;2023-04-24T09:45:52;5.20;;;1.02;;
46551;SDS011;32278;51.810;4.712;2023-04-24T09:48:29;3.45;;;0.80;;
46551;SDS011;32278;51.810;4.712;2023-04-24T09:50:55;3.35;;;0.90;;
46551;SDS011;32278;51.810;4.712;2023-04-24T09:53:24;2.53;;;0.75;;
46551;SDS011;32278;51.810;4.712;2023-04-24T09:55:51;1.90;;;0.70;;
46551;SDS011;32278;51.810;4.712;2023-04-24T09:58:18;5.85;;;1.15;;
46551;SDS011;32278;51.810;4.712;2023-04-24T10:00:47;5.00;;;0.73;;
46551;SDS011;32278;51.810;4.712;2023-04-24T10:03:13;4.50;;;0.82;;
46551;SDS011;32278;51.810;4.712;2023-04-24T10:05:39;3.65;;;1.13;;
46551;SDS011;32278;51.810;4.712;2023-04-24T10:08:06;2.13;;;0.60;;
46551;SDS011;32278;51.810;4.712;2023-04-24T10:10:34;6.47;;;1.20;;
46551;SDS011;32278;51.810;4.712;2023-04-24T10:13:00;5.00;;;0.63;;
46551;SDS011;32278;51.810;4.712;2023-04-24T10:15:26;2.70;;;0.77;;
46551;SDS011;32278;51.810;4.712;2023-04-24T10:17:53;1.20;;;0.73;;
46551;SDS011;32278;51.810;4.712;2023-04-24T10:20:19;4.05;;;1.10;;
46551;SDS011;32278;51.810;4.712;2023-04-24T10:22:47;5.38;;;1.65;;
46551;SDS011;32278;51.810;4.712;2023-04-24T10:25:16;2.60;;;0.98;;
46551;SDS011;32278;51.810;4.712;2023-04-24T10:27:42;4.57;;;1.08;;
46551;SDS011;32278;51.810;4.712;2023-04-24T10:30:09;1.83;;;0.88;;
46551;SDS011;32278;51.810;4.712;2023-04-24T10:32:38;4.20;;;0.90;;
46551;SDS011;32278;51.810;4.712;2023-04-24T10:35:05;5.65;;;1.10;;
46551;SDS011;32278;51.810;4.712;2023-04-24T10:37:35;4.82;;;0.90;;
46551;SDS011;32278;51.810;4.712;2023-04-24T10:40:02;11.50;;;1.50;;
46551;SDS011;32278;51.810;4.712;2023-04-24T10:42:28;5.88;;;1.13;;
46551;SDS011;32278;51.810;4.712;2023-04-24T10:44:54;3.92;;;0.77;;
46551;SDS011;32278;51.810;4.712;2023-04-24T10:47:22;5.45;;;1.17;;
46551;SDS011;32278;51.810;4.712;2023-04-24T10:49:50;5.40;;;1.10;;
46551;SDS011;32278;51.810;4.712;2023-04-24T10:52:17;8.90;;;1.30;;
46551;SDS011;32278;51.810;4.712;2023-04-24T10:54:46;11.38;;;1.38;;
46551;SDS011;32278;51.810;4.712;2023-04-24T10:59:48;4.35;;;1.17;;
46551;SDS011;32278;51.810;4.712;2023-04-24T11:02:14;4.22;;;2.55;;
46551;SDS011;32278;51.810;4.712;2023-04-24T11:04:41;2.70;;;0.95;;
46551;SDS011;32278;51.810;4.712;2023-04-24T11:07:10;8.40;;;1.42;;
46551;SDS011;32278;51.810;4.712;2023-04-24T11:09:36;3.17;;;2.05;;
46551;SDS011;32278;51.810;4.712;2023-04-24T11:12:06;10.05;;;2.00;;
46551;SDS011;32278;51.810;4.712;2023-04-24T11:17:27;7.22;;;1.65;;
46551;SDS011;32278;51.810;4.712;2023-04-24T11:19:53;2.92;;;1.08;;
46551;SDS011;32278;51.810;4.712;2023-04-24T11:22:26;5.32;;;1.27;;
46551;SDS011;32278;51.810;4.712;2023-04-24T11:24:54;8.10;;;1.50;;
46551;SDS011;32278;51.810;4.712;2023-04-24T11:27:21;3.35;;;1.38;;
46551;SDS011;32278;51.810;4.712;2023-04-24T11:34:45;4.28;;;0.90;;
46551;SDS011;32278;51.810;4.712;2023-04-24T11:37:11;5.00;;;1.20;;
46551;SDS011;32278;51.810;4.712;2023-04-24T11:39:38;7.07;;;1.23;;
46551;SDS011;32278;51.810;4.712;2023-04-24T11:42:04;3.75;;;0.98;;
46551;SDS011;32278;51.810;4.712;2023-04-24T11:44:32;6.95;;;1.20;;
46551;SDS011;32278;51.810;4.712;2023-04-24T11:46:59;7.07;;;1.42;;
46551;SDS011;32278;51.810;4.712;2023-04-24T11:49:25;1.88;;;1.00;;
46551;SDS011;32278;51.810;4.712;2023-04-24T11:51:54;5.55;;;1.20;;
46551;SDS011;32278;51.810;4.712;2023-04-24T11:54:20;5.18;;;1.38;;
46551;SDS011;32278;51.810;4.712;2023-04-24T11:56:47;6.55;;;1.67;;
46551;SDS011;32278;51.810;4.712;2023-04-24T11:59:13;6.03;;;1.48;;
46551;SDS011;32278;51.810;4.712;2023-04-24T12:01:43;4.07;;;1.08;;
46551;SDS011;32278;51.810;4.712;2023-04-24T12:04:10;18.35;;;1.88;;
46551;SDS011;32278;51.810;4.712;2023-04-24T12:06:36;4.70;;;1.42;;
46551;SDS011;32278;51.810;4.712;2023-04-24T12:09:01;7.43;;;1.65;;
46551;SDS011;32278;51.810;4.712;2023-04-24T12:11:27;6.22;;;1.50;;
46551;SDS011;32278;51.810;4.712;2023-04-24T12:13:53;6.03;;;1.80;;
46551;SDS011;32278;51.810;4.712;2023-04-24T12:16:19;7.10;;;1.25;;
46551;SDS011;32278;51.810;4.712;2023-04-24T12:18:46;8.57;;;2.33;;
46551;SDS011;32278;51.810;4.712;2023-04-24T12:21:18;7.60;;;1.77;;
46551;SDS011;32278;51.810;4.712;2023-04-24T12:23:45;2.08;;;1.15;;
46551;SDS011;32278;51.810;4.712;2023-04-24T12:26:12;9.65;;;1.90;;
46551;SDS011;32278;51.810;4.712;2023-04-24T12:28:38;5.15;;;1.92;;
46551;SDS011;32278;51.810;4.712;2023-04-24T12:31:04;9.50;;;1.67;;
46551;SDS011;32278;51.810;4.712;2023-04-24T12:33:35;9.13;;;1.58;;
46551;SDS011;32278;51.810;4.712;2023-04-24T12:36:01;14.15;;;1.60;;
46551;SDS011;32278;51.810;4.712;2023-04-24T12:38:27;8.82;;;1.73;;
46551;SDS011;32278;51.810;4.712;2023-04-24T12:41:05;4.03;;;1.40;;
46551;SDS011;32278;51.810;4.712;2023-04-24T12:43:32;6.78;;;1.50;;
46551;SDS011;32278;51.810;4.712;2023-04-24T12:45:58;5.05;;;2.13;;
46551;SDS011;32278;51.810;4.712;2023-04-24T12:48:24;9.55;;;2.05;;
46551;SDS011;32278;51.810;4.712;2023-04-24T12:50:50;3.67;;;1.25;;
46551;SDS011;32278;51.810;4.712;2023-04-24T12:53:16;10.10;;;1.92;;
46551;SDS011;32278;51.810;4.712;2023-04-24T12:55:42;10.70;;;1.48;;
46551;SDS011;32278;51.810;4.712;2023-04-24T12:58:09;3.28;;;1.50;;
46551;SDS011;32278;51.810;4.712;2023-04-24T13:00:36;7.07;;;1.90;;
46551;SDS011;32278;51.810;4.712;2023-04-24T13:03:02;8.93;;;2.42;;
46551;SDS011;32278;51.810;4.712;2023-04-24T13:05:28;7.72;;;4.13;;
46551;SDS011;32278;51.810;4.712;2023-04-24T13:07:54;5.72;;;1.50;;
46551;SDS011;32278;51.810;4.712;2023-04-24T13:10:20;10.57;;;2.00;;
46551;SDS011;32278;51.810;4.712;2023-04-24T13:12:46;4.63;;;1.65;;
46551;SDS011;32278;51.810;4.712;2023-04-24T13:15:12;10.90;;;1.92;;
46551;SDS011;32278;51.810;4.712;2023-04-24T13:17:38;5.47;;;2.30;;
46551;SDS011;32278;51.810;4.712;2023-04-24T13:20:05;9.45;;;2.10;;
46551;SDS011;32278;51.810;4.712;2023-04-24T13:22:31;8.07;;;2.10;;
46551;SDS011;32278;51.810;4.712;2023-04-24T13:24:57;6.82;;;1.90;;
46551;SDS011;32278;51.810;4.712;2023-04-24T13:27:23;15.77;;;2.83;;
46551;SDS011;32278;51.810;4.712;2023-04-24T13:29:49;12.65;;;2.72;;
46551;SDS011;32278;51.810;4.712;2023-04-24T13:32:16;11.63;;;2.50;;
46551;SDS011;32278;51.810;4.712;2023-04-24T13:34:42;8.63;;;2.40;;
46551;SDS011;32278;51.810;4.712;2023-04-24T13:37:08;17.40;;;2.15;;
46551;SDS011;32278;51.810;4.712;2023-04-24T13:39:34;6.28;;;3.00;;
46551;SDS011;32278;51.810;4.712;2023-04-24T13:42:00;11.23;;;2.88;;
46551;SDS011;32278;51.810;4.712;2023-04-24T13:44:26;15.05;;;3.13;;
46551;SDS011;32278;51.810;4.712;2023-04-24T13:46:53;10.07;;;2.38;;
46551;SDS011;32278;51.810;4.712;2023-04-24T13:49:21;14.98;;;4.20;;
46551;SDS011;32278;51.810;4.712;2023-04-24T13:51:47;15.68;;;3.95;;
46551;SDS011;32278;51.810;4.712;2023-04-24T13:54:13;7.95;;;2.72;;
46551;SDS011;32278;51.810;4.712;2023-04-24T13:56:40;8.95;;;2.38;;
46551;SDS011;32278;51.810;4.712;2023-04-24T13:59:06;13.77;;;2.55;;
46551;SDS011;32278;51.810;4.712;2023-04-24T14:01:32;11.57;;;2.83;;
46551;SDS011;32278;51.810;4.712;2023-04-24T14:03:58;6.75;;;2.67;;
46551;SDS011;32278;51.810;4.712;2023-04-24T14:06:24;8.70;;;2.65;;
46551;SDS011;32278;51.810;4.712;2023-04-24T14:08:51;8.35;;;2.83;;
46551;SDS011;32278;51.810;4.712;2023-04-24T14:11:17;9.35;;;3.97;;
46551;SDS011;32278;51.810;4.712;2023-04-24T14:13:43;10.25;;;2.83;;
46551;SDS011;32278;51.810;4.712;2023-04-24T14:16:10;14.30;;;3.17;;
46551;SDS011;32278;51.810;4.712;2023-04-24T14:18:36;10.07;;;3.20;;
46551;SDS011;32278;51.810;4.712;2023-04-24T14:21:05;12.55;;;3.88;;
46551;SDS011;32278;51.810;4.712;2023-04-24T14:23:31;11.27;;;2.92;;
46551;SDS011;32278;51.810;4.712;2023-04-24T14:25:57;10.02;;;3.58;;
46551;SDS011;32278;51.810;4.712;2023-04-24T14:28:23;13.95;;;3.13;;
46551;SDS011;32278;51.810;4.712;2023-04-24T14:30:50;8.38;;;3.65;;
46551;SDS011;32278;51.810;4.712;2023-04-24T14:33:16;8.73;;;2.20;;
46551;SDS011;32278;51.810;4.712;2023-04-24T14:35:43;7.88;;;2.28;;
46551;SDS011;32278;51.810;4.712;2023-04-24T14:38:09;6.57;;;2.70;;
46551;SDS011;32278;51.810;4.712;2023-04-24T14:40:35;15.63;;;3.55;;
46551;SDS011;32278;51.810;4.712;2023-04-24T14:43:01;13.68;;;3.38;;
46551;SDS011;32278;51.810;4.712;2023-04-24T14:45:27;10.68;;;3.30;;
46551;SDS011;32278;51.810;4.712;2023-04-24T14:47:53;8.98;;;2.80;;